Flight Briefing for CMB825

Departure Arrival
Grantley Adams International Airport (TBPB)
Click to view FAA NOTAMS
RAF Ascension Island (FHAW)
Click to view FAA NOTAMS
Departure Time Arrival Time
N/A N/A
Aircraft Distance
B757-200SF 2971nm
Departure METAR Arrival METAR
TBPB 200900Z 08016KT 9999 FEW020 25/19 Q1013 NOSIG FHAW 200850Z 13014KT 9999 FEW018 28/23 Q1012 BLU NOSIG
Suggested Route
BGI ROVBA ASALI UL695 EGIMI UL695 FHAW


View recent IFR Routes data
Notes
USTRANSCOM CONTRACT FLIGHT | PAYLOAD RESTRICTED | ETOPS

Charts and Procedures

Charts for TBPB
No chart available
Charts for FHAW
No chart available

Windy.com Weather Map